createdAt,value
2017-11-17T00:01:52.078Z,69.17
2017-11-17T00:04:19.784Z,65.80
2017-11-17T00:06:47.420Z,68.70
2017-11-17T00:09:15.039Z,66.27
2017-11-17T00:11:43.212Z,71.23
2017-11-17T00:14:11.381Z,70.50
2017-11-17T00:16:39.012Z,68.53
2017-11-17T00:19:06.754Z,60.37
2017-11-17T00:21:34.871Z,76.50
2017-11-17T00:24:02.574Z,66.13
2017-11-17T00:26:30.199Z,59.30
2017-11-17T00:28:57.820Z,64.97
2017-11-17T00:31:25.533Z,61.17
2017-11-17T00:33:53.180Z,66.40
2017-11-17T00:36:28.973Z,61.93
2017-11-17T00:38:57.474Z,72.67
2017-11-17T00:41:25.097Z,62.90
2017-11-17T00:43:52.724Z,68.70
2017-11-17T00:46:20.420Z,66.57
2017-11-17T00:48:49.003Z,70.80
2017-11-17T00:51:16.639Z,68.40
2017-11-17T00:53:44.316Z,67.40
2017-11-17T00:56:12.776Z,71.23
2017-11-17T00:58:40.394Z,75.60
2017-11-17T01:03:50.995Z,72.32
2017-11-17T01:06:18.392Z,71.13
2017-11-17T01:08:46.020Z,79.70
2017-11-17T01:11:13.656Z,65.40
2017-11-17T01:13:41.363Z,64.23
2017-11-17T01:16:08.988Z,66.23
2017-11-17T01:18:36.619Z,72.57
2017-11-17T01:21:04.321Z,64.90
2017-11-17T01:23:31.944Z,65.50
2017-11-17T01:28:39.866Z,61.40
2017-11-17T01:31:07.497Z,57.17
2017-11-17T01:33:35.116Z,58.73
2017-11-17T01:36:02.821Z,53.90
2017-11-17T01:38:32.251Z,47.60
2017-11-17T01:40:58.071Z,48.37
2017-11-17T01:43:25.754Z,56.83
2017-11-17T01:45:53.390Z,46.70
2017-11-17T01:48:21.021Z,45.90
2017-11-17T01:50:48.722Z,45.40
2017-11-17T01:53:17.178Z,44.10
2017-11-17T01:55:44.809Z,46.60
2017-11-17T01:58:12.494Z,52.83
2017-11-17T02:00:40.140Z,54.73
2017-11-17T02:03:07.792Z,56.10
2017-11-17T02:05:35.499Z,54.03
2017-11-17T02:08:04.087Z,48.83
2017-11-17T02:10:31.717Z,60.80
2017-11-17T02:12:59.417Z,70.10
2017-11-17T02:15:27.045Z,69.27
2017-11-17T02:17:54.670Z,69.80
2017-11-17T02:20:22.379Z,60.83
2017-11-17T02:22:50.341Z,69.37
2017-11-17T02:25:17.829Z,60.77
2017-11-17T02:27:46.669Z,63.43
2017-11-17T02:30:14.312Z,63.37
2017-11-17T02:32:42.451Z,66.37
2017-11-17T02:35:10.157Z,52.03
2017-11-17T02:37:37.787Z,68.30
2017-11-17T02:40:05.426Z,75.27
2017-11-17T02:45:13.222Z,93.68
2017-11-17T02:47:41.708Z,70.13
2017-11-17T02:50:09.314Z,69.30
2017-11-17T02:52:36.958Z,59.60
2017-11-17T02:55:05.610Z,68.90
2017-11-17T02:57:33.245Z,67.40
2017-11-17T03:00:00.885Z,76.07
2017-11-17T03:02:28.584Z,83.90
2017-11-17T03:04:56.247Z,83.63
2017-11-17T03:07:23.826Z,67.93
2017-11-17T03:09:51.518Z,62.73
2017-11-17T03:12:19.149Z,65.07
2017-11-17T03:14:46.782Z,71.57
2017-11-17T03:17:14.486Z,66.10
2017-11-17T03:19:42.105Z,68.57
2017-11-17T03:22:09.734Z,75.87
2017-11-17T03:24:37.422Z,65.67
2017-11-17T03:27:05.040Z,67.70
2017-11-17T03:29:33.485Z,66.20
2017-11-17T03:32:01.176Z,71.67
2017-11-17T03:34:28.817Z,78.57
2017-11-17T03:36:57.406Z,73.50
2017-11-17T03:39:25.986Z,64.70
2017-11-17T03:41:53.617Z,67.67
2017-11-17T03:44:21.232Z,83.63
2017-11-17T03:46:48.927Z,67.60
2017-11-17T03:49:16.560Z,74.17
2017-11-17T03:51:45.020Z,64.73
2017-11-17T03:54:12.740Z,76.77
2017-11-17T03:56:40.359Z,67.67
2017-11-17T03:59:07.988Z,62.20
2017-11-17T04:01:35.674Z,53.53
2017-11-17T04:04:03.306Z,49.53
2017-11-17T04:06:30.955Z,47.03
2017-11-17T04:11:38.273Z,61.40
2017-11-17T04:14:05.966Z,49.67
2017-11-17T04:16:33.586Z,45.10
2017-11-17T04:19:01.222Z,47.43
2017-11-17T04:21:29.728Z,54.87
2017-11-17T04:23:57.358Z,55.37
2017-11-17T04:26:24.996Z,45.93
2017-11-17T04:28:52.700Z,49.47
2017-11-17T04:31:21.113Z,46.47
2017-11-17T04:33:48.738Z,51.47
2017-11-17T04:36:16.454Z,47.83
2017-11-17T04:38:44.079Z,52.97
2017-11-17T04:41:11.697Z,47.63
2017-11-17T04:43:39.377Z,51.93
2017-11-17T04:46:07.774Z,46.33
2017-11-17T04:48:35.419Z,46.10
2017-11-17T04:51:03.124Z,48.27
2017-11-17T04:53:30.755Z,55.80
2017-11-17T04:55:58.394Z,65.77
2017-11-17T04:58:27.034Z,64.27
2017-11-17T05:00:54.665Z,57.70
2017-11-17T05:03:22.290Z,68.17
2017-11-17T05:05:50.012Z,59.17
2017-11-17T05:08:17.600Z,58.43
2017-11-17T05:10:45.220Z,64.13
2017-11-17T05:13:12.900Z,61.30
2017-11-17T05:15:40.617Z,53.90
2017-11-17T05:18:08.243Z,54.53
2017-11-17T05:20:35.926Z,58.20
2017-11-17T05:23:03.568Z,52.77
2017-11-17T05:25:31.203Z,68.30
2017-11-17T05:27:58.900Z,53.23
2017-11-17T05:30:26.524Z,56.90
2017-11-17T05:32:54.149Z,56.57
2017-11-17T05:38:00.920Z,72.10
2017-11-17T05:40:28.660Z,54.33
2017-11-17T05:42:56.282Z,54.37
2017-11-17T05:45:23.905Z,53.93
2017-11-17T05:47:51.606Z,48.83
2017-11-17T05:50:20.194Z,48.50
2017-11-17T05:52:47.840Z,50.80
2017-11-17T05:55:15.532Z,49.60
2017-11-17T05:57:43.162Z,44.63
2017-11-17T06:00:10.798Z,43.10
2017-11-17T06:02:38.503Z,45.10
2017-11-17T06:05:06.137Z,45.60
2017-11-17T06:07:33.778Z,48.50
2017-11-17T06:10:01.480Z,47.83
2017-11-17T06:12:29.121Z,44.60
2017-11-17T06:14:56.763Z,41.83
2017-11-17T06:17:24.469Z,42.20
2017-11-17T06:19:52.948Z,48.53
2017-11-17T06:22:20.603Z,47.67
2017-11-17T06:24:48.735Z,40.37
2017-11-17T06:27:16.356Z,34.97
2017-11-17T06:29:45.344Z,36.63
2017-11-17T06:32:12.923Z,38.43
2017-11-17T06:34:40.604Z,39.97
2017-11-17T06:37:08.240Z,39.93
2017-11-17T06:39:36.682Z,39.27
2017-11-17T06:42:04.466Z,44.83
2017-11-17T06:44:32.874Z,42.67
2017-11-17T06:47:00.509Z,41.87
2017-11-17T06:49:29.081Z,42.57
2017-11-17T06:51:56.705Z,40.47
2017-11-17T06:54:25.063Z,43.37
2017-11-17T06:56:52.755Z,45.07
2017-11-17T06:59:20.380Z,29.70
2017-11-17T07:04:29.173Z,40.92
2017-11-17T07:06:56.799Z,38.10
2017-11-17T07:09:25.394Z,38.17
2017-11-17T07:11:53.093Z,34.33
2017-11-17T07:14:20.728Z,39.23
2017-11-17T07:16:48.347Z,32.50
2017-11-17T07:19:16.027Z,35.03
2017-11-17T07:21:43.654Z,33.00
2017-11-17T07:24:11.290Z,37.27
2017-11-17T07:26:39.384Z,36.13
2017-11-17T07:29:07.019Z,31.80
2017-11-17T07:31:35.604Z,32.70
2017-11-17T07:34:03.303Z,32.93
2017-11-17T07:36:31.920Z,33.73
2017-11-17T07:38:59.549Z,25.93
2017-11-17T07:41:27.266Z,25.87
2017-11-17T07:43:54.907Z,27.60
2017-11-17T07:46:23.361Z,24.00
2017-11-17T07:48:51.052Z,22.23
2017-11-17T07:51:19.676Z,22.63
2017-11-17T07:53:47.649Z,25.27
2017-11-17T07:56:15.375Z,26.40
2017-11-17T07:58:43.011Z,31.80
2017-11-17T08:01:10.651Z,28.37
2017-11-17T08:03:38.354Z,28.40
2017-11-17T08:06:06.002Z,33.07
2017-11-17T08:08:34.488Z,24.63
2017-11-17T08:11:03.096Z,23.27
2017-11-17T08:13:30.731Z,22.53
2017-11-17T08:15:58.368Z,20.63
2017-11-17T08:21:14.446Z,25.42
2017-11-17T08:23:42.150Z,21.20
2017-11-17T08:26:09.790Z,21.07
2017-11-17T08:28:37.432Z,21.53
2017-11-17T08:31:05.124Z,19.17
2017-11-17T08:36:15.704Z,20.62
2017-11-17T08:38:44.286Z,22.33
2017-11-17T08:41:11.925Z,19.17
2017-11-17T08:43:39.617Z,21.30
2017-11-17T08:46:07.249Z,19.77
2017-11-17T08:48:35.834Z,17.63
2017-11-17T08:51:03.557Z,21.23
2017-11-17T08:53:31.205Z,19.40
2017-11-17T08:55:58.825Z,18.17
2017-11-17T08:58:26.542Z,18.27
2017-11-17T09:00:54.180Z,17.97
2017-11-17T09:03:22.786Z,20.00
2017-11-17T09:05:50.464Z,15.47
2017-11-17T09:08:18.100Z,22.43
2017-11-17T09:10:46.713Z,18.40
2017-11-17T09:13:14.871Z,16.97
2017-11-17T09:15:43.470Z,16.70
2017-11-17T09:18:11.102Z,17.73
2017-11-17T09:20:38.805Z,20.30
2017-11-17T09:23:06.442Z,20.13
2017-11-17T09:28:14.420Z,20.92
2017-11-17T09:30:42.332Z,20.43
2017-11-17T09:33:09.954Z,20.10
2017-11-17T09:35:38.223Z,21.17
2017-11-17T09:38:05.786Z,19.90
2017-11-17T09:40:33.428Z,21.33
2017-11-17T09:43:01.904Z,18.97
2017-11-17T09:45:30.374Z,17.50
2017-11-17T09:47:58.986Z,20.27
2017-11-17T09:50:27.916Z,18.90
2017-11-17T09:52:56.284Z,19.33
2017-11-17T09:55:24.901Z,24.43
2017-11-17T09:57:53.569Z,20.17
2017-11-17T10:00:21.200Z,22.07
2017-11-17T10:02:48.826Z,21.83
2017-11-17T10:05:16.521Z,20.87
2017-11-17T10:07:44.153Z,21.07
2017-11-17T10:10:11.806Z,19.73
2017-11-17T10:12:39.549Z,23.40
2017-11-17T10:15:08.022Z,23.00
2017-11-17T10:17:35.666Z,19.13
2017-11-17T10:20:03.386Z,19.50
2017-11-17T10:22:31.021Z,16.80
2017-11-17T10:24:59.618Z,16.23
2017-11-17T10:27:28.278Z,17.40
2017-11-17T10:29:55.909Z,19.77
2017-11-17T10:32:24.371Z,19.73
2017-11-17T10:34:52.107Z,18.10
2017-11-17T10:37:19.743Z,19.40
2017-11-17T10:39:47.376Z,23.07
2017-11-17T10:42:15.361Z,20.07
2017-11-17T10:44:42.993Z,18.17
2017-11-17T10:47:10.624Z,18.33
2017-11-17T10:52:17.429Z,20.15
2017-11-17T10:54:45.116Z,20.53
2017-11-17T10:57:12.757Z,19.57
2017-11-17T10:59:40.390Z,21.43
2017-11-17T11:02:08.095Z,19.47
2017-11-17T11:04:36.223Z,19.30
2017-11-17T11:07:04.755Z,21.40
2017-11-17T11:09:33.351Z,19.80
2017-11-17T11:12:01.819Z,19.37
2017-11-17T11:14:29.477Z,19.80
2017-11-17T11:16:57.191Z,19.80
2017-11-17T11:19:24.817Z,21.10
2017-11-17T11:21:52.449Z,21.20
2017-11-17T11:24:21.164Z,20.13
2017-11-17T11:26:48.797Z,19.57
2017-11-17T11:29:16.425Z,20.23
2017-11-17T11:31:44.114Z,23.70
2017-11-17T11:34:11.751Z,22.50
2017-11-17T11:36:39.406Z,20.23
2017-11-17T11:39:07.098Z,22.13
2017-11-17T11:41:34.737Z,25.27
2017-11-17T11:44:02.361Z,21.20
2017-11-17T11:46:30.076Z,23.83
2017-11-17T11:48:58.548Z,21.40
2017-11-17T11:51:26.187Z,25.73
2017-11-17T11:53:53.912Z,25.60
2017-11-17T11:56:21.537Z,23.37
2017-11-17T11:58:49.165Z,22.47
2017-11-17T12:01:16.868Z,26.30
2017-11-17T12:03:44.498Z,22.07
2017-11-17T12:06:12.135Z,20.87
2017-11-17T12:08:39.850Z,23.47
2017-11-17T12:11:07.501Z,21.30
2017-11-17T12:13:35.125Z,20.90
2017-11-17T12:18:43.917Z,27.52
2017-11-17T12:21:11.629Z,22.43
2017-11-17T12:23:39.262Z,22.33
2017-11-17T12:26:06.941Z,24.13
2017-11-17T12:28:35.562Z,26.07
2017-11-17T12:31:03.196Z,23.20
2017-11-17T12:33:31.403Z,27.93
2017-11-17T12:35:59.123Z,23.63
2017-11-17T12:38:29.714Z,27.33
2017-11-17T12:40:57.349Z,25.70
2017-11-17T12:43:25.054Z,25.10
2017-11-17T12:45:52.694Z,24.83
2017-11-17T12:48:22.394Z,26.27
2017-11-17T12:50:50.113Z,25.70
2017-11-17T12:53:17.749Z,24.07
2017-11-17T12:55:45.388Z,24.03
2017-11-17T12:58:16.293Z,31.63
2017-11-17T13:00:43.940Z,29.13
2017-11-17T13:03:12.345Z,27.70
2017-11-17T13:05:40.057Z,27.77
2017-11-17T13:08:07.689Z,25.63
2017-11-17T13:10:35.325Z,25.13
2017-11-17T13:13:03.481Z,24.23
2017-11-17T13:15:31.122Z,27.23
2017-11-17T13:17:58.763Z,24.50
2017-11-17T13:20:27.467Z,27.00
2017-11-17T13:22:55.105Z,26.53
2017-11-17T13:25:22.753Z,25.63
2017-11-17T13:27:51.288Z,28.10
2017-11-17T13:30:18.929Z,25.53
2017-11-17T13:32:47.938Z,22.30
2017-11-17T13:35:15.631Z,26.13
2017-11-17T13:37:46.257Z,25.60
2017-11-17T13:40:13.898Z,23.67
2017-11-17T13:42:41.604Z,21.73
2017-11-17T13:47:50.391Z,25.90
2017-11-17T13:50:18.018Z,22.30
2017-11-17T13:52:45.679Z,26.43
2017-11-17T13:55:13.357Z,21.40
2017-11-17T13:57:41.578Z,23.60
2017-11-17T14:00:09.224Z,24.87
2017-11-17T14:02:37.758Z,26.13
2017-11-17T14:05:06.359Z,22.17
2017-11-17T14:07:33.999Z,20.53
2017-11-17T14:10:01.689Z,20.73
2017-11-17T14:12:29.332Z,24.63
2017-11-17T14:14:58.257Z,23.77
2017-11-17T14:17:26.850Z,30.00
2017-11-17T14:19:54.484Z,25.17
2017-11-17T14:22:22.123Z,27.00
2017-11-17T14:24:50.660Z,24.83
2017-11-17T14:27:19.214Z,23.13
2017-11-17T14:29:47.508Z,23.07
2017-11-17T14:32:15.249Z,24.40
2017-11-17T14:34:42.903Z,22.63
2017-11-17T14:37:11.403Z,26.13
2017-11-17T14:39:39.119Z,23.57
2017-11-17T14:42:06.760Z,23.20
2017-11-17T14:44:34.391Z,23.93
2017-11-17T14:47:02.101Z,23.93
2017-11-17T14:49:30.589Z,27.03
2017-11-17T14:51:59.067Z,28.20
2017-11-17T14:54:26.774Z,26.20
2017-11-17T14:56:54.393Z,20.90
2017-11-17T15:02:05.922Z,28.85
2017-11-17T15:04:33.629Z,28.03
2017-11-17T15:07:01.253Z,27.80
2017-11-17T15:09:28.967Z,25.57
2017-11-17T15:11:56.955Z,28.10
2017-11-17T15:14:24.582Z,26.70
2017-11-17T15:16:52.685Z,24.80
2017-11-17T15:19:21.562Z,26.57
2017-11-17T15:21:49.208Z,24.97
2017-11-17T15:24:16.913Z,26.97
2017-11-17T15:26:44.537Z,28.03
2017-11-17T15:29:12.175Z,29.67
2017-11-17T15:31:40.771Z,27.53
2017-11-17T15:34:09.321Z,29.20
2017-11-17T15:36:36.951Z,27.47
2017-11-17T15:39:05.630Z,25.43
2017-11-17T15:41:33.250Z,25.47
2017-11-17T15:44:00.870Z,30.27
2017-11-17T15:46:28.576Z,27.77
2017-11-17T15:48:56.204Z,27.33
2017-11-17T15:51:23.828Z,30.47
2017-11-17T15:53:52.363Z,32.23
2017-11-17T15:56:19.984Z,27.23
2017-11-17T15:58:47.608Z,27.67
2017-11-17T16:01:16.313Z,28.23
2017-11-17T16:03:44.846Z,31.50
2017-11-17T16:06:12.470Z,28.33
2017-11-17T16:08:40.154Z,28.73
2017-11-17T16:11:08.779Z,32.87
2017-11-17T16:13:36.432Z,35.60
2017-11-17T16:16:05.138Z,33.50
2017-11-17T16:18:32.789Z,30.80
2017-11-17T16:21:01.230Z,31.20
2017-11-17T16:26:09.725Z,29.23
2017-11-17T16:28:37.838Z,29.90
2017-11-17T16:31:06.470Z,33.67
2017-11-17T16:33:34.110Z,30.63
2017-11-17T16:36:02.769Z,35.07
2017-11-17T16:38:31.349Z,36.77
2017-11-17T16:40:58.995Z,37.23
2017-11-17T16:43:26.707Z,38.23
2017-11-17T16:45:54.378Z,32.93
2017-11-17T16:48:22.845Z,36.93
2017-11-17T16:50:50.586Z,42.43
2017-11-17T16:53:18.247Z,40.43
2017-11-17T16:55:45.899Z,41.10
2017-11-17T16:58:14.429Z,52.87
2017-11-17T17:00:42.927Z,36.27
2017-11-17T17:03:11.398Z,41.80
2017-11-17T17:05:39.096Z,41.77
2017-11-17T17:08:06.753Z,37.57
2017-11-17T17:10:34.401Z,38.67
2017-11-17T17:13:02.107Z,45.97
2017-11-17T17:15:30.560Z,39.53
2017-11-17T17:17:59.832Z,34.70
2017-11-17T17:25:53.093Z,43.25
2017-11-17T17:28:20.744Z,43.97
2017-11-17T17:30:48.942Z,41.77
2017-11-17T17:33:18.478Z,42.17
2017-11-17T17:35:44.296Z,38.63
2017-11-17T17:38:11.932Z,42.23
2017-11-17T17:40:43.783Z,41.33
2017-11-17T17:43:09.484Z,43.03
2017-11-17T17:45:37.546Z,42.17
2017-11-17T17:48:05.247Z,39.43
2017-11-17T17:50:32.880Z,39.73
2017-11-17T17:53:04.892Z,41.37
2017-11-17T17:55:31.159Z,40.57
2017-11-17T17:57:59.331Z,42.13
2017-11-17T18:00:26.967Z,41.40
2017-11-17T18:02:54.653Z,41.67
2017-11-17T18:05:22.289Z,42.03
2017-11-17T18:07:50.890Z,42.40
2017-11-17T18:10:19.076Z,46.63
2017-11-17T18:12:48.068Z,46.63
2017-11-17T18:15:15.722Z,40.73
2017-11-17T18:17:43.979Z,41.73
2017-11-17T18:20:12.683Z,45.43
2017-11-17T18:22:40.327Z,39.90
2017-11-17T18:25:08.021Z,43.97
2017-11-17T18:30:16.614Z,41.80
2017-11-17T18:32:44.248Z,39.97
2017-11-17T18:35:11.866Z,38.97
2017-11-17T18:37:39.560Z,36.73
2017-11-17T18:40:07.231Z,43.90
2017-11-17T18:42:34.849Z,41.37
2017-11-17T18:45:02.541Z,39.07
2017-11-17T18:47:30.179Z,39.70
2017-11-17T18:49:57.791Z,39.13
2017-11-17T18:52:25.466Z,39.67
2017-11-17T18:54:53.120Z,32.33
2017-11-17T18:57:20.758Z,39.07
2017-11-17T18:59:48.438Z,38.07
2017-11-17T19:02:16.071Z,41.07
2017-11-17T19:04:43.708Z,38.07
2017-11-17T19:07:11.453Z,39.53
2017-11-17T19:09:39.021Z,42.63
2017-11-17T19:12:06.665Z,48.67
2017-11-17T19:14:34.387Z,39.53
2017-11-17T19:17:02.929Z,39.63
2017-11-17T19:19:30.563Z,43.93
2017-11-17T19:21:58.254Z,42.73
2017-11-17T19:24:25.879Z,49.00
2017-11-17T19:26:53.518Z,41.97
2017-11-17T19:29:21.617Z,43.93
2017-11-17T19:31:50.230Z,40.70
2017-11-17T19:34:17.859Z,37.57
2017-11-17T19:36:46.521Z,36.20
2017-11-17T19:39:14.153Z,38.50
2017-11-17T19:41:41.921Z,41.93
2017-11-17T19:44:09.855Z,39.13
2017-11-17T19:46:37.497Z,43.00
2017-11-17T19:49:05.143Z,42.07
2017-11-17T19:51:32.826Z,41.00
2017-11-17T19:54:00.444Z,36.93
2017-11-17T19:59:07.266Z,43.38
2017-11-17T20:01:34.897Z,37.80
2017-11-17T20:04:02.532Z,37.27
2017-11-17T20:06:30.216Z,40.07
2017-11-17T20:08:57.832Z,38.07
2017-11-17T20:11:25.474Z,36.87
2017-11-17T20:13:53.165Z,38.73
2017-11-17T20:16:20.837Z,41.40
2017-11-17T20:18:48.474Z,42.50
2017-11-17T20:21:16.201Z,35.83
2017-11-17T20:23:44.161Z,38.90
2017-11-17T20:28:43.431Z,38.00
2017-11-17T20:31:11.107Z,42.10
2017-11-17T20:33:38.781Z,39.00
2017-11-17T20:36:06.466Z,39.43
2017-11-17T20:38:34.097Z,37.83
2017-11-17T20:41:01.723Z,37.30
2017-11-17T20:43:29.412Z,39.37
2017-11-17T20:45:57.041Z,36.20
2017-11-17T20:48:24.683Z,42.43
2017-11-17T20:50:52.367Z,38.97
2017-11-17T20:53:19.995Z,39.73
2017-11-17T20:55:47.615Z,37.80
2017-11-17T20:58:15.430Z,38.63
2017-11-17T21:00:43.062Z,35.00
2017-11-17T21:03:10.677Z,35.47
2017-11-17T21:05:38.375Z,37.97
2017-11-17T21:08:05.993Z,44.90
2017-11-17T21:10:38.768Z,40.40
2017-11-17T21:15:45.643Z,44.15
2017-11-17T21:23:39.970Z,39.92
2017-11-17T21:26:07.573Z,40.33
2017-11-17T21:28:35.394Z,36.73
2017-11-17T21:31:03.030Z,34.47
2017-11-17T21:33:30.653Z,37.37
2017-11-17T21:35:58.293Z,40.50
2017-11-17T21:38:25.997Z,37.17
2017-11-17T21:40:53.627Z,37.40
2017-11-17T21:43:21.262Z,38.00
2017-11-17T21:45:48.953Z,39.17
2017-11-17T21:48:16.579Z,38.53
2017-11-17T21:50:44.212Z,37.37
2017-11-17T21:53:11.911Z,41.23
2017-11-17T21:55:39.551Z,33.20
2017-11-17T21:58:07.185Z,40.53
2017-11-17T22:00:34.869Z,37.00
2017-11-17T22:03:02.498Z,40.70
2017-11-17T22:05:30.784Z,37.27
2017-11-17T22:07:58.463Z,43.50
2017-11-17T22:10:26.103Z,41.80
2017-11-17T22:12:53.740Z,38.87
2017-11-17T22:15:21.455Z,37.47
2017-11-17T22:17:49.078Z,37.50
2017-11-17T22:20:16.727Z,35.80
2017-11-17T22:22:44.507Z,39.40
2017-11-17T22:25:12.094Z,39.70
2017-11-17T22:27:39.994Z,40.33
2017-11-17T22:30:07.662Z,35.47
2017-11-17T22:32:35.290Z,41.27
2017-11-17T22:35:02.921Z,39.87
2017-11-17T22:37:30.602Z,39.10
2017-11-17T22:39:58.232Z,41.57
2017-11-17T22:42:25.864Z,42.07
2017-11-17T22:44:53.570Z,39.70
2017-11-17T22:50:02.342Z,43.25
2017-11-17T22:52:29.974Z,42.50
2017-11-17T22:54:57.598Z,41.20
2017-11-17T22:57:25.287Z,41.30
2017-11-17T22:59:52.917Z,40.30
2017-11-17T23:02:20.543Z,40.27
2017-11-17T23:04:48.334Z,40.77
2017-11-17T23:07:15.857Z,42.57
2017-11-17T23:09:43.492Z,45.10
2017-11-17T23:12:11.172Z,44.63
2017-11-17T23:14:38.834Z,45.77
2017-11-17T23:17:06.456Z,40.53
2017-11-17T23:19:34.141Z,41.30
2017-11-17T23:22:01.764Z,38.43
2017-11-17T23:24:29.382Z,40.97
2017-11-17T23:26:57.080Z,44.20
2017-11-17T23:29:24.748Z,38.53
2017-11-17T23:31:52.333Z,36.63
2017-11-17T23:34:20.022Z,35.70
2017-11-17T23:36:47.648Z,40.80
2017-11-17T23:39:15.279Z,38.23
2017-11-17T23:41:43.018Z,37.90
2017-11-17T23:44:10.655Z,43.00
2017-11-17T23:46:38.301Z,39.23
2017-11-17T23:49:06.053Z,36.60
2017-11-17T23:51:33.766Z,39.40
2017-11-17T23:54:01.296Z,37.17
2017-11-17T23:56:29.000Z,41.83
2017-11-17T23:58:56.619Z,38.13
